Terminal Aerodrome Forecast
Issued by NWS

Home | Current Version | Previous Version | Text Only | Print | Product List | Glossary Off
Versions: 1 2 3 4 5 6 7 8 9 10 11 12 13 14

000
FTUS43 KGRB 010530
TAFAUW
TAF
KAUW 010530Z 0106/0206 28004KT P6SM -SN OVC006
      TEMPO 0106/0110 4SM -RASN BR OVC004
     FM011000 28006KT P6SM -SN OVC006
     FM011400 29007KT P6SM -SN OVC010
     FM011600 30008KT P6SM OVC018=

USA.gov is the U.S. government's official web portal to all federal, state and local government web resources and services.